createdAt,value
2018-11-06T00:01:19.483Z,94048.47
2018-11-06T00:03:48.830Z,94050.00
2018-11-06T00:06:16.846Z,94046.59
2018-11-06T00:08:44.828Z,94045.28
2018-11-06T00:11:12.884Z,94047.29
2018-11-06T00:13:40.898Z,94044.97
2018-11-06T00:16:11.181Z,94045.77
2018-11-06T00:18:39.242Z,94042.19
2018-11-06T00:21:07.311Z,94040.20
2018-11-06T00:23:35.399Z,94040.94
2018-11-06T00:26:03.491Z,94041.21
2018-11-06T00:28:31.508Z,94039.72
2018-11-06T00:30:59.568Z,94040.31
2018-11-06T00:33:27.563Z,94035.94
2018-11-06T00:35:55.647Z,94030.83
2018-11-06T00:38:23.717Z,94029.31
2018-11-06T00:40:51.712Z,94034.23
2018-11-06T00:43:19.695Z,94032.81
2018-11-06T00:45:47.779Z,94038.02
2018-11-06T00:48:15.817Z,94035.87
2018-11-06T00:50:43.863Z,94031.28
2018-11-06T00:53:11.844Z,94035.68
2018-11-06T00:55:39.904Z,94037.54
2018-11-06T00:58:07.919Z,94040.86
2018-11-06T01:00:35.947Z,94041.19
2018-11-06T01:03:04.331Z,94041.34
2018-11-06T01:05:32.327Z,94039.81
2018-11-06T01:08:00.386Z,94034.15
2018-11-06T01:10:28.538Z,94035.45
2018-11-06T01:12:56.586Z,94032.98
2018-11-06T01:15:24.589Z,94028.39
2018-11-06T01:17:52.721Z,94036.25
2018-11-06T01:20:20.786Z,94034.05
2018-11-06T01:22:48.892Z,94031.84
2018-11-06T01:25:16.974Z,94024.45
2018-11-06T01:27:45.052Z,94023.16
2018-11-06T01:30:16.378Z,94029.42
2018-11-06T01:32:45.037Z,94029.17
2018-11-06T01:35:13.889Z,94031.97
2018-11-06T01:37:42.792Z,94031.97
2018-11-06T01:40:12.453Z,94038.61
2018-11-06T01:42:41.124Z,94034.52
2018-11-06T01:45:11.249Z,94027.04
2018-11-06T01:47:39.782Z,94031.45
2018-11-06T01:50:09.645Z,94029.49
2018-11-06T01:52:37.700Z,94029.99
2018-11-06T01:55:06.295Z,94022.91
2018-11-06T01:57:34.412Z,94022.62
2018-11-06T02:00:02.509Z,94026.91
2018-11-06T02:02:30.593Z,94026.38
2018-11-06T02:04:58.648Z,94022.43
2018-11-06T02:07:26.734Z,94020.93
2018-11-06T02:09:54.775Z,94017.75
2018-11-06T02:12:22.782Z,94017.27
2018-11-06T02:14:50.952Z,94023.80
2018-11-06T02:17:18.950Z,94022.21
2018-11-06T02:19:47.277Z,94024.41
2018-11-06T02:22:15.371Z,94030.23
2018-11-06T02:24:43.395Z,94028.62
2018-11-06T02:27:11.487Z,94028.06
2018-11-06T02:29:39.532Z,94029.77
2018-11-06T02:32:07.558Z,94034.94
2018-11-06T02:34:35.693Z,94027.67
2018-11-06T02:37:03.817Z,94032.34
2018-11-06T02:39:31.910Z,94030.64
2018-11-06T02:41:59.874Z,94032.57
2018-11-06T02:44:27.952Z,94024.02
2018-11-06T02:46:56.100Z,94028.65
2018-11-06T02:49:24.235Z,94024.78
2018-11-06T02:51:52.244Z,94018.06
2018-11-06T02:54:20.275Z,94016.95
2018-11-06T02:56:48.325Z,94018.30
2018-11-06T02:59:16.370Z,94023.42
2018-11-06T03:01:44.382Z,94022.80
2018-11-06T03:04:12.580Z,94028.84
2018-11-06T03:06:40.602Z,94024.50
2018-11-06T03:09:08.836Z,94025.65
2018-11-06T03:11:37.161Z,94031.14
2018-11-06T03:14:05.458Z,94032.70
2018-11-06T03:16:33.589Z,94031.58
2018-11-06T03:19:01.657Z,94032.00
2018-11-06T03:21:29.788Z,94032.00
2018-11-06T03:23:57.957Z,94032.98
2018-11-06T03:26:25.965Z,94025.45
2018-11-06T03:28:54.113Z,94030.60
2018-11-06T03:31:22.312Z,94025.50
2018-11-06T03:33:50.397Z,94033.31
2018-11-06T03:36:18.473Z,94035.92
2018-11-06T03:38:46.505Z,94032.98
2018-11-06T03:41:14.537Z,94032.59
2018-11-06T03:43:42.573Z,94033.55
2018-11-06T03:46:11.408Z,94030.88
2018-11-06T03:48:39.465Z,94029.78
2018-11-06T03:51:07.869Z,94032.34
2018-11-06T03:53:36.348Z,94033.58
2018-11-06T03:56:04.734Z,94027.24
2018-11-06T03:58:32.746Z,94024.83
2018-11-06T04:01:00.848Z,94025.64
2018-11-06T04:03:29.014Z,94023.88
2018-11-06T04:05:57.110Z,94034.17
2018-11-06T04:08:25.248Z,94033.52
2018-11-06T04:10:53.318Z,94033.69
2018-11-06T04:13:21.502Z,94038.26
2018-11-06T04:15:49.640Z,94038.38
2018-11-06T04:18:17.748Z,94034.81
2018-11-06T04:20:45.798Z,94032.27
2018-11-06T04:23:13.899Z,94040.44
2018-11-06T04:25:42.032Z,94042.34
2018-11-06T04:28:10.316Z,94047.86
2018-11-06T04:30:38.474Z,94044.14
2018-11-06T04:33:06.651Z,94041.73
2018-11-06T04:35:34.997Z,94042.52
2018-11-06T04:38:03.041Z,94050.08
2018-11-06T04:40:31.157Z,94047.53
2018-11-06T04:42:59.283Z,94047.09
2018-11-06T04:45:27.313Z,94045.75
2018-11-06T04:47:55.429Z,94053.55
2018-11-06T04:50:23.724Z,94053.69
2018-11-06T04:52:51.799Z,94052.39
2018-11-06T04:55:19.959Z,94051.01
2018-11-06T04:57:48.048Z,94052.50
2018-11-06T05:00:16.195Z,94050.31
2018-11-06T05:02:44.432Z,94053.09
2018-11-06T05:05:13.044Z,94054.70
2018-11-06T05:07:41.255Z,94061.01
2018-11-06T05:10:11.392Z,94061.13
2018-11-06T05:12:39.583Z,94065.80
2018-11-06T05:15:09.876Z,94067.84
2018-11-06T05:17:38.140Z,94073.91
2018-11-06T05:20:08.996Z,94066.81
2018-11-06T05:22:37.255Z,94074.46
2018-11-06T05:25:06.071Z,94077.39
2018-11-06T05:27:34.678Z,94075.20
2018-11-06T05:30:02.912Z,94078.22
2018-11-06T05:32:31.158Z,94073.08
2018-11-06T05:34:59.426Z,94076.84
2018-11-06T05:37:27.678Z,94076.41
2018-11-06T05:40:06.997Z,94077.62
2018-11-06T05:42:35.127Z,94076.95
2018-11-06T05:45:03.264Z,94073.90
2018-11-06T05:47:31.434Z,94075.48
2018-11-06T05:49:59.466Z,94069.20
2018-11-06T05:52:27.615Z,94071.55
2018-11-06T05:54:55.885Z,94072.83
2018-11-06T05:57:24.092Z,94079.64
2018-11-06T05:59:52.278Z,94076.63
2018-11-06T06:02:26.457Z,94077.05
2018-11-06T06:04:59.979Z,94076.31
2018-11-06T06:07:32.808Z,94082.76
2018-11-06T06:10:05.358Z,94074.64
2018-11-06T06:12:38.764Z,94078.46
2018-11-06T06:15:13.238Z,94075.25
2018-11-06T06:17:46.132Z,94071.70
2018-11-06T06:20:19.603Z,94069.13
2018-11-06T06:22:53.736Z,94070.80
2018-11-06T06:25:27.381Z,94074.88
2018-11-06T06:28:03.885Z,94070.23
2018-11-06T06:30:41.938Z,94076.77
2018-11-06T06:33:17.714Z,94076.14
2018-11-06T06:35:54.519Z,94077.93
2018-11-06T06:38:32.655Z,94077.43
2018-11-06T06:41:09.400Z,94081.09
2018-11-06T06:43:38.823Z,94071.98
2018-11-06T06:46:07.191Z,94077.70
2018-11-06T06:48:35.349Z,94076.69
2018-11-06T06:51:03.570Z,94063.47
2018-11-06T06:53:31.811Z,94078.38
2018-11-06T06:56:00.272Z,94080.63
2018-11-06T06:58:28.574Z,94075.89
2018-11-06T07:00:56.807Z,94079.70
2018-11-06T07:03:25.426Z,94075.45
2018-11-06T07:05:54.392Z,94077.67
2018-11-06T07:08:22.854Z,94073.66
2018-11-06T07:10:51.324Z,94069.99
2018-11-06T07:13:19.658Z,94074.27
2018-11-06T07:15:48.823Z,94078.75
2018-11-06T07:18:17.208Z,94080.12
2018-11-06T07:20:45.443Z,94079.52
2018-11-06T07:23:13.933Z,94075.16
2018-11-06T07:25:42.257Z,94076.18
2018-11-06T07:28:10.821Z,94074.58
2018-11-06T07:30:39.315Z,94067.09
2018-11-06T07:33:07.349Z,94067.60
2018-11-06T07:35:35.593Z,94075.99
2018-11-06T07:38:24.900Z,94069.42
2018-11-06T07:40:54.127Z,94073.44
2018-11-06T07:43:22.148Z,94076.29
2018-11-06T07:45:50.581Z,94073.13
2018-11-06T07:48:19.201Z,94070.07
2018-11-06T07:50:47.797Z,94064.84
2018-11-06T07:53:16.117Z,94068.19
2018-11-06T07:55:44.418Z,94068.69
2018-11-06T07:58:12.817Z,94071.98
2018-11-06T08:00:41.403Z,94069.03
2018-11-06T08:03:10.026Z,94073.89
2018-11-06T08:05:38.564Z,94060.21
2018-11-06T08:08:06.940Z,94066.83
2018-11-06T08:10:35.357Z,94057.87
2018-11-06T08:13:03.558Z,94055.59
2018-11-06T08:15:31.846Z,94057.72
2018-11-06T08:18:00.129Z,94057.78
2018-11-06T08:20:28.469Z,94059.98
2018-11-06T08:22:57.018Z,94054.31
2018-11-06T08:25:25.493Z,94061.38
2018-11-06T08:27:53.949Z,94054.00
2018-11-06T08:30:22.448Z,94059.65
2018-11-06T08:32:51.319Z,94056.98
2018-11-06T08:35:19.761Z,94047.96
2018-11-06T08:37:48.225Z,94048.12
2018-11-06T08:40:17.686Z,94054.69
2018-11-06T08:42:46.076Z,94042.29
2018-11-06T08:45:16.491Z,94042.08
2018-11-06T08:47:45.505Z,94040.63
2018-11-06T08:50:16.362Z,94044.52
2018-11-06T08:52:44.919Z,94041.55
2018-11-06T08:55:14.244Z,94040.05
2018-11-06T08:57:43.879Z,94043.59
2018-11-06T09:00:14.301Z,94048.80
2018-11-06T09:02:43.810Z,94048.14
2018-11-06T09:05:13.639Z,94044.90
2018-11-06T09:07:42.064Z,94042.55
2018-11-06T09:10:12.241Z,94037.48
2018-11-06T09:12:40.823Z,94039.58
2018-11-06T09:15:10.842Z,94034.79
2018-11-06T09:17:39.710Z,94032.91
2018-11-06T09:20:09.652Z,94032.27
2018-11-06T09:22:37.877Z,94028.12
2018-11-06T09:25:07.170Z,94030.06
2018-11-06T09:27:35.241Z,94029.06
2018-11-06T09:30:03.381Z,94027.24
2018-11-06T09:32:31.592Z,94018.01
2018-11-06T09:34:59.796Z,94018.55
2018-11-06T09:37:27.936Z,94019.56
2018-11-06T09:39:56.043Z,94019.03
2018-11-06T09:42:24.239Z,94016.50
2018-11-06T09:44:52.466Z,94011.23
2018-11-06T09:47:20.886Z,94015.66
2018-11-06T09:49:49.119Z,94005.93
2018-11-06T09:52:17.259Z,94007.81
2018-11-06T09:54:45.268Z,94003.14
2018-11-06T09:57:13.766Z,93995.87
2018-11-06T09:59:41.934Z,93994.16
2018-11-06T10:02:10.118Z,93991.58
2018-11-06T10:04:38.296Z,93983.00
2018-11-06T10:07:06.880Z,93977.20
2018-11-06T10:09:34.908Z,93973.92
2018-11-06T10:12:03.238Z,93968.47
2018-11-06T10:14:31.323Z,93966.20
2018-11-06T10:16:59.482Z,93962.28
2018-11-06T10:19:27.789Z,93957.67
2018-11-06T10:21:56.067Z,93946.49
2018-11-06T10:24:24.520Z,93941.77
2018-11-06T10:26:53.027Z,93946.02
2018-11-06T10:29:21.348Z,93947.50
2018-11-06T10:31:49.525Z,93949.86
2018-11-06T10:34:17.601Z,93938.17
2018-11-06T10:36:45.556Z,93937.95
2018-11-06T10:39:13.981Z,93938.18
2018-11-06T10:41:42.512Z,93936.56
2018-11-06T10:44:10.626Z,93934.51
2018-11-06T10:46:38.688Z,93936.76
2018-11-06T10:49:07.709Z,93932.33
2018-11-06T10:51:35.868Z,93924.77
2018-11-06T10:54:04.229Z,93926.08
2018-11-06T10:59:11.001Z,93922.34
2018-11-06T11:01:44.517Z,93915.87
2018-11-06T11:04:14.827Z,93905.39
2018-11-06T11:06:42.850Z,93903.61
2018-11-06T11:09:11.240Z,93906.20
2018-11-06T11:11:39.227Z,93893.46
2018-11-06T11:14:07.472Z,93896.67
2018-11-06T11:16:35.696Z,93891.59
2018-11-06T11:19:04.160Z,93896.22
2018-11-06T11:21:32.383Z,93889.70
2018-11-06T11:24:00.703Z,93891.04
2018-11-06T11:26:28.834Z,93887.55
2018-11-06T11:28:57.202Z,93888.10
2018-11-06T11:31:25.764Z,93883.34
2018-11-06T11:33:54.234Z,93876.83
2018-11-06T11:36:22.430Z,93884.06
2018-11-06T11:38:50.536Z,93879.03
2018-11-06T11:41:18.771Z,93876.39
2018-11-06T11:43:46.933Z,93878.59
2018-11-06T11:46:16.260Z,93878.23
2018-11-06T11:48:44.403Z,93875.97
2018-11-06T11:51:12.538Z,93872.92
2018-11-06T11:53:40.711Z,93873.00
2018-11-06T11:56:09.088Z,93871.42
2018-11-06T11:58:37.190Z,93865.10
2018-11-06T12:01:05.281Z,93861.03
2018-11-06T12:03:33.361Z,93856.27
2018-11-06T12:06:01.688Z,93855.41
2018-11-06T12:08:30.039Z,93856.20
2018-11-06T12:10:58.234Z,93850.73
2018-11-06T12:13:26.378Z,93850.34
2018-11-06T12:15:54.601Z,93843.52
2018-11-06T12:18:23.038Z,93847.05
2018-11-06T12:20:51.520Z,93850.80
2018-11-06T12:23:19.891Z,93848.41
2018-11-06T12:25:48.155Z,93840.98
2018-11-06T12:28:16.340Z,93833.17
2018-11-06T12:30:44.612Z,93835.72
2018-11-06T12:33:12.892Z,93834.41
2018-11-06T12:37:57.692Z,93832.48
2018-11-06T12:40:25.707Z,93826.92
2018-11-06T12:42:53.801Z,93834.16
2018-11-06T12:45:21.841Z,93831.36
2018-11-06T12:47:50.006Z,93825.78
2018-11-06T12:50:18.169Z,93824.88
2018-11-06T12:52:46.249Z,93823.64
2018-11-06T12:55:15.574Z,93821.22
2018-11-06T12:57:44.132Z,93819.99
2018-11-06T13:00:16.083Z,93824.17
2018-11-06T13:02:44.244Z,93819.33
2018-11-06T13:05:12.714Z,93824.50
2018-11-06T13:07:41.766Z,93830.00
2018-11-06T13:10:10.825Z,93828.24
2018-11-06T13:12:39.384Z,93830.08
2018-11-06T13:15:07.973Z,93829.84
2018-11-06T13:17:36.458Z,93829.89
2018-11-06T13:20:06.931Z,93829.84
2018-11-06T13:22:35.035Z,93823.48
2018-11-06T13:25:03.090Z,93825.28
2018-11-06T13:27:31.129Z,93820.63
2018-11-06T13:29:59.333Z,93818.05
2018-11-06T13:32:27.433Z,93823.44
2018-11-06T13:34:55.497Z,93825.88
2018-11-06T13:37:23.643Z,93822.80
2018-11-06T13:39:51.759Z,93816.15
2018-11-06T13:42:19.924Z,93821.18
2018-11-06T13:44:48.377Z,93823.17
2018-11-06T13:47:16.455Z,93826.23
2018-11-06T13:49:44.695Z,93818.81
2018-11-06T13:52:13.271Z,93826.53
2018-11-06T13:54:41.680Z,93821.92
2018-11-06T13:57:10.000Z,93824.17
2018-11-06T13:59:38.748Z,93825.97
2018-11-06T14:02:07.099Z,93821.81
2018-11-06T14:04:35.711Z,93819.90
2018-11-06T14:07:04.244Z,93818.10
2018-11-06T14:09:32.603Z,93818.10
2018-11-06T14:12:00.891Z,93819.77
2018-11-06T14:14:29.157Z,93826.64
2018-11-06T14:16:57.560Z,93821.16
2018-11-06T14:19:25.965Z,93817.02
2018-11-06T14:21:55.721Z,93816.75
2018-11-06T14:24:23.920Z,93817.70
2018-11-06T14:26:52.514Z,93816.58
2018-11-06T14:29:20.986Z,93816.49
2018-11-06T14:31:49.246Z,93820.58
2018-11-06T14:34:17.466Z,93821.47
2018-11-06T14:36:45.664Z,93822.73
2018-11-06T14:39:14.078Z,93820.49
2018-11-06T14:41:42.323Z,93817.11
2018-11-06T14:44:10.810Z,93816.14
2018-11-06T14:46:39.090Z,93814.34
2018-11-06T14:49:07.576Z,93817.97
2018-11-06T14:51:36.040Z,93819.89
2018-11-06T14:54:04.397Z,93813.08
2018-11-06T14:56:32.823Z,93813.56
2018-11-06T14:59:01.024Z,93822.63
2018-11-06T15:01:29.312Z,93826.28
2018-11-06T15:03:57.570Z,93826.23
2018-11-06T15:06:25.753Z,93825.04
2018-11-06T15:08:54.305Z,93828.20
2018-11-06T15:12:58.298Z,93826.13
2018-11-06T15:15:26.579Z,93831.73
2018-11-06T15:17:55.026Z,93831.44
2018-11-06T15:20:23.393Z,93833.40
2018-11-06T15:22:51.753Z,93833.59
2018-11-06T15:25:20.041Z,93835.27
2018-11-06T15:27:48.266Z,93837.13
2018-11-06T15:30:17.595Z,93838.05
2018-11-06T15:32:45.988Z,93834.66
2018-11-06T15:35:15.788Z,93836.61
2018-11-06T15:37:44.083Z,93843.02
2018-11-06T15:40:14.512Z,93835.19
2018-11-06T15:42:42.779Z,93843.81
2018-11-06T15:45:12.294Z,93845.12
2018-11-06T15:47:41.291Z,93848.73
2018-11-06T15:50:11.358Z,93851.42
2018-11-06T15:52:39.874Z,93850.59
2018-11-06T15:55:08.056Z,93851.52
2018-11-06T15:57:36.748Z,93853.22
2018-11-06T16:00:10.112Z,93854.90
2018-11-06T16:02:38.277Z,93861.17
2018-11-06T16:05:06.452Z,93859.48
2018-11-06T16:07:34.968Z,93863.95
2018-11-06T16:10:03.434Z,93866.77
2018-11-06T16:12:31.660Z,93863.73
2018-11-06T16:14:59.833Z,93870.12
2018-11-06T16:17:28.178Z,93875.70
2018-11-06T16:19:56.355Z,93877.19
2018-11-06T16:22:24.512Z,93876.36
2018-11-06T16:24:52.731Z,93877.66
2018-11-06T16:27:20.824Z,93879.72
2018-11-06T16:29:49.173Z,93885.76
2018-11-06T16:32:17.355Z,93888.00
2018-11-06T16:34:45.549Z,93889.45
2018-11-06T16:37:13.684Z,93886.84
2018-11-06T16:39:41.761Z,93895.68
2018-11-06T16:42:10.006Z,93897.54
2018-11-06T16:44:38.132Z,93898.47
2018-11-06T16:47:06.278Z,93899.88
2018-11-06T16:49:34.494Z,93902.52
2018-11-06T16:52:02.743Z,93898.81
2018-11-06T16:54:30.929Z,93898.41
2018-11-06T16:56:59.157Z,93907.50
2018-11-06T16:59:27.332Z,93909.72
2018-11-06T17:01:55.544Z,93914.84
2018-11-06T17:04:23.733Z,93909.83
2018-11-06T17:06:51.837Z,93908.09
2018-11-06T17:09:20.837Z,93912.83
2018-11-06T17:11:49.125Z,93913.80
2018-11-06T17:14:17.315Z,93917.82
2018-11-06T17:16:45.735Z,93924.80
2018-11-06T17:19:13.936Z,93924.16
2018-11-06T17:21:42.255Z,93925.00
2018-11-06T17:24:10.431Z,93926.47
2018-11-06T17:26:38.656Z,93932.78
2018-11-06T17:29:07.225Z,93933.03
2018-11-06T17:31:35.804Z,93934.67
2018-11-06T17:34:04.879Z,93930.49
2018-11-06T17:36:33.134Z,93940.54
2018-11-06T17:39:01.378Z,93949.64
2018-11-06T17:41:29.590Z,93947.39
2018-11-06T17:43:57.788Z,93938.72
2018-11-06T17:46:26.258Z,93942.93
2018-11-06T17:48:54.554Z,93949.23
2018-11-06T17:51:22.784Z,93948.36
2018-11-06T17:53:50.984Z,93949.01
2018-11-06T17:56:19.274Z,93954.35
2018-11-06T17:58:47.493Z,93959.61
2018-11-06T18:01:15.710Z,93956.83
2018-11-06T18:03:44.012Z,93961.05
2018-11-06T18:06:12.139Z,93954.01
2018-11-06T18:08:40.357Z,93962.01
2018-11-06T18:11:08.561Z,93959.00
2018-11-06T18:13:36.679Z,93961.88
2018-11-06T18:16:05.054Z,93960.83
2018-11-06T18:18:33.093Z,93960.45
2018-11-06T18:21:01.178Z,93968.48
2018-11-06T18:23:29.392Z,93963.44
2018-11-06T18:25:57.736Z,93961.47
2018-11-06T18:28:25.901Z,93964.53
2018-11-06T18:30:54.295Z,93964.86
2018-11-06T18:33:22.653Z,93965.97
2018-11-06T18:35:50.786Z,93962.52
2018-11-06T18:38:19.026Z,93958.52
2018-11-06T18:40:47.062Z,93961.61
2018-11-06T18:43:15.416Z,93965.57
2018-11-06T18:45:43.696Z,93963.95
2018-11-06T18:48:11.798Z,93965.25
2018-11-06T18:50:39.963Z,93962.98
2018-11-06T18:53:08.182Z,93963.69
2018-11-06T18:55:36.387Z,93969.23
2018-11-06T18:58:05.249Z,93960.70
2018-11-06T19:00:33.330Z,93962.69
2018-11-06T19:03:01.450Z,93966.52
2018-11-06T19:05:29.700Z,93969.09
2018-11-06T19:07:57.684Z,93973.96
2018-11-06T19:10:26.001Z,93978.78
2018-11-06T19:12:54.185Z,93973.13
2018-11-06T19:15:23.530Z,93973.27
2018-11-06T19:17:51.708Z,93974.10
2018-11-06T19:20:19.951Z,93981.62
2018-11-06T19:22:48.153Z,93983.84
2018-11-06T19:25:16.420Z,93979.52
2018-11-06T19:27:44.681Z,93984.67
2018-11-06T19:30:15.804Z,93989.75
2018-11-06T19:32:43.805Z,93983.21
2018-11-06T19:35:12.082Z,93984.38
2018-11-06T19:37:40.811Z,93985.15
2018-11-06T19:40:10.792Z,93986.70
2018-11-06T19:42:39.853Z,93986.70
2018-11-06T19:45:08.826Z,93990.39
2018-11-06T19:47:37.101Z,93985.02
2018-11-06T19:50:06.785Z,93989.30
2018-11-06T19:52:34.786Z,93982.53
2018-11-06T19:55:02.859Z,93985.64
2018-11-06T19:57:31.026Z,93991.78
2018-11-06T19:59:59.232Z,93985.78
2018-11-06T20:02:27.580Z,93989.15
2018-11-06T20:04:55.698Z,93986.38
2018-11-06T20:07:23.745Z,93981.97
2018-11-06T20:09:52.183Z,93984.88
2018-11-06T20:12:20.373Z,93980.22
2018-11-06T20:14:48.694Z,93981.17
2018-11-06T20:17:16.829Z,93984.20
2018-11-06T20:19:44.976Z,93984.94
2018-11-06T20:22:12.999Z,93977.72
2018-11-06T20:24:41.045Z,93984.44
2018-11-06T20:27:09.235Z,93986.16
2018-11-06T20:29:37.313Z,93988.34
2018-11-06T20:32:05.473Z,93989.30
2018-11-06T20:34:33.682Z,93992.12
2018-11-06T20:37:01.968Z,93994.97
2018-11-06T20:39:30.321Z,93994.89
2018-11-06T20:41:58.537Z,93991.34
2018-11-06T20:44:26.715Z,93987.66
2018-11-06T20:46:55.210Z,93996.83
2018-11-06T20:49:23.370Z,93989.85
2018-11-06T20:51:51.430Z,93998.12
2018-11-06T20:54:19.472Z,94001.79
2018-11-06T20:56:47.537Z,93997.09
2018-11-06T20:59:15.631Z,93997.82
2018-11-06T21:01:43.604Z,93993.13
2018-11-06T21:04:11.700Z,93995.23
2018-11-06T21:06:39.758Z,93997.02
2018-11-06T21:09:09.307Z,94001.97
2018-11-06T21:11:37.890Z,93997.80
2018-11-06T21:14:05.996Z,94010.75
2018-11-06T21:16:33.938Z,93998.22
2018-11-06T21:19:01.851Z,94001.23
2018-11-06T21:21:29.937Z,94003.75
2018-11-06T21:23:57.933Z,94002.97
2018-11-06T21:26:26.003Z,94001.95
2018-11-06T21:28:53.851Z,94000.09
2018-11-06T21:31:21.995Z,94002.86
2018-11-06T21:33:50.116Z,94000.63
2018-11-06T21:36:18.018Z,94002.97
2018-11-06T21:38:45.916Z,94009.82
2018-11-06T21:41:13.998Z,94007.02
2018-11-06T21:43:42.073Z,94001.59
2018-11-06T21:46:10.153Z,94005.84
2018-11-06T21:48:38.162Z,94000.91
2018-11-06T21:51:06.251Z,94003.31
2018-11-06T21:53:34.268Z,94003.77
2018-11-06T21:56:02.246Z,94000.27
2018-11-06T21:58:30.276Z,93997.64
2018-11-06T22:00:58.193Z,93996.48
2018-11-06T22:03:26.141Z,94000.78
2018-11-06T22:05:54.231Z,94001.23
2018-11-06T22:08:22.226Z,93997.09
2018-11-06T22:10:50.271Z,93999.12
2018-11-06T22:13:18.286Z,94002.20
2018-11-06T22:15:46.320Z,93994.89
2018-11-06T22:18:14.359Z,93994.75
2018-11-06T22:20:42.357Z,93990.30
2018-11-06T22:23:10.430Z,93994.16
2018-11-06T22:25:38.799Z,93999.31
2018-11-06T22:28:06.770Z,93994.39
2018-11-06T22:30:34.654Z,93996.45
2018-11-06T22:33:02.736Z,93999.17
2018-11-06T22:35:30.642Z,93991.07
2018-11-06T22:37:58.560Z,93988.86
2018-11-06T22:40:26.480Z,93994.84
2018-11-06T22:42:54.483Z,94001.34
2018-11-06T22:45:22.467Z,93994.61
2018-11-06T22:47:50.512Z,94001.80
2018-11-06T22:50:18.661Z,94000.93
2018-11-06T22:52:47.732Z,94003.22
2018-11-06T22:55:16.136Z,94002.16
2018-11-06T22:57:44.489Z,94001.87
2018-11-06T23:00:14.987Z,93999.76
2018-11-06T23:02:43.222Z,93998.97
2018-11-06T23:05:11.439Z,94000.59
2018-11-06T23:07:45.076Z,94001.42
2018-11-06T23:10:13.328Z,93998.88
2018-11-06T23:12:41.746Z,94002.09
2018-11-06T23:15:09.753Z,94004.17
2018-11-06T23:17:37.806Z,94014.34
2018-11-06T23:20:06.759Z,94010.64
2018-11-06T23:22:34.809Z,94008.56
2018-11-06T23:25:02.926Z,94015.64
2018-11-06T23:27:30.949Z,94011.78
2018-11-06T23:29:59.028Z,94018.13
2018-11-06T23:32:27.083Z,94014.95
2018-11-06T23:34:55.264Z,94015.19
2018-11-06T23:37:23.364Z,94015.80
2018-11-06T23:39:51.405Z,94012.86
2018-11-06T23:42:19.449Z,94013.62
2018-11-06T23:44:47.441Z,94009.01
2018-11-06T23:47:15.484Z,94010.92
2018-11-06T23:49:43.531Z,94007.67
2018-11-06T23:52:11.555Z,94013.78
2018-11-06T23:54:39.593Z,94016.07
2018-11-06T23:57:07.621Z,94016.95
2018-11-06T23:59:35.700Z,94013.97
